createdAt,value
2017-07-12T00:02:49.607Z,0
2017-07-12T00:12:47.090Z,0
2017-07-12T00:22:50.665Z,0
2017-07-12T00:32:46.041Z,0
2017-07-12T00:42:45.976Z,0
2017-07-12T00:52:46.044Z,0
2017-07-12T01:02:45.958Z,0
2017-07-12T01:12:46.085Z,0
2017-07-12T01:22:45.975Z,0
2017-07-12T01:32:46.082Z,0
2017-07-12T01:42:46.071Z,0
2017-07-12T01:52:45.954Z,0
2017-07-12T02:02:46.007Z,0
2017-07-12T02:12:45.986Z,0
2017-07-12T02:22:46.016Z,0
2017-07-12T02:32:46.013Z,0
2017-07-12T02:42:45.968Z,0
2017-07-12T02:52:46.030Z,4
2017-07-12T03:02:46.250Z,8
2017-07-12T03:12:45.973Z,16
2017-07-12T03:22:46.021Z,20
2017-07-12T03:32:45.957Z,80
2017-07-12T03:42:46.020Z,128
2017-07-12T03:52:45.993Z,296
2017-07-12T04:02:45.962Z,460
2017-07-12T04:12:46.028Z,652
2017-07-12T04:22:45.990Z,212
2017-07-12T04:32:46.041Z,476
2017-07-12T04:42:45.983Z,512
2017-07-12T04:52:45.962Z,1120
2017-07-12T05:02:46.031Z,1552
2017-07-12T05:12:45.979Z,1952
2017-07-12T05:22:46.044Z,3776
2017-07-12T05:32:46.035Z,6168
2017-07-12T05:42:45.973Z,2452
2017-07-12T05:52:46.035Z,3132
2017-07-12T06:02:46.003Z,5836
2017-07-12T06:12:45.958Z,3064
2017-07-12T06:22:46.189Z,5544
2017-07-12T06:32:45.986Z,4800
2017-07-12T06:42:46.060Z,4348
2017-07-12T06:52:45.962Z,3620
2017-07-12T07:02:46.069Z,5936
2017-07-12T07:12:51.221Z,1912
2017-07-12T07:22:47.200Z,1800
2017-07-12T07:32:46.082Z,4500
2017-07-12T07:42:46.014Z,2612
2017-07-12T07:52:45.996Z,4728
2017-07-12T08:02:46.052Z,2088
2017-07-12T08:12:46.028Z,5408
2017-07-12T08:22:45.973Z,5952
2017-07-12T08:32:45.981Z,7796
2017-07-12T08:42:45.935Z,9608
2017-07-12T08:52:45.939Z,7300
2017-07-12T09:02:45.952Z,5184
2017-07-12T09:12:45.971Z,5372
2017-07-12T09:22:45.945Z,1788
2017-07-12T09:42:45.976Z,1376
2017-07-12T09:52:45.952Z,1248
2017-07-12T10:02:45.968Z,3756
2017-07-12T10:12:45.951Z,3252
2017-07-12T10:22:45.970Z,1956
2017-07-12T10:32:46.066Z,2088
2017-07-12T10:42:45.967Z,3748
2017-07-12T10:52:45.945Z,7824
2017-07-12T11:02:45.958Z,8536
2017-07-12T11:12:45.965Z,7224
2017-07-12T11:22:45.938Z,4252
2017-07-12T11:32:49.415Z,5744
2017-07-12T11:42:45.979Z,4716
2017-07-12T11:52:48.852Z,8168
2017-07-12T12:02:46.025Z,8760
2017-07-12T12:12:48.134Z,13276
2017-07-12T12:22:45.998Z,6228
2017-07-12T12:32:46.096Z,3756
2017-07-12T12:42:46.029Z,2240
2017-07-12T12:52:46.123Z,2476
2017-07-12T13:02:46.062Z,1796
2017-07-12T13:12:46.200Z,3224
2017-07-12T13:22:46.228Z,4612
2017-07-12T13:32:46.133Z,5456
2017-07-12T13:42:46.085Z,9128
2017-07-12T13:52:46.215Z,12184
2017-07-12T14:02:46.173Z,15432
2017-07-12T14:12:46.414Z,22944
2017-07-12T14:22:46.146Z,19044
2017-07-12T14:32:46.133Z,6316
2017-07-12T14:42:46.066Z,11696
2017-07-12T14:52:46.171Z,15272
2017-07-12T15:02:46.131Z,6476
2017-07-12T15:12:46.081Z,1432
2017-07-12T15:22:46.137Z,1520
2017-07-12T15:32:46.075Z,7160
2017-07-12T15:42:46.118Z,7580
2017-07-12T15:52:46.534Z,8328
2017-07-12T16:02:46.073Z,4676
2017-07-12T16:12:46.163Z,1652
2017-07-12T16:22:46.859Z,6200
2017-07-12T16:32:46.112Z,3084
2017-07-12T16:42:46.065Z,4760
2017-07-12T16:52:46.125Z,2744
2017-07-12T17:02:46.132Z,3136
2017-07-12T17:12:46.077Z,5024
2017-07-12T17:22:46.069Z,5808
2017-07-12T17:32:46.078Z,2908
2017-07-12T17:42:46.104Z,2652
2017-07-12T17:52:46.108Z,2692
2017-07-12T18:02:46.104Z,3124
2017-07-12T18:12:46.134Z,2616
2017-07-12T18:22:46.120Z,2792
2017-07-12T18:32:46.096Z,1576
2017-07-12T18:42:46.076Z,1892
2017-07-12T18:52:46.112Z,1788
2017-07-12T19:02:54.905Z,1072
2017-07-12T19:12:46.292Z,836
2017-07-12T19:22:46.114Z,656
2017-07-12T19:32:46.097Z,424
2017-07-12T19:42:46.164Z,236
2017-07-12T19:52:46.454Z,112
2017-07-12T20:02:46.193Z,44
2017-07-12T20:12:46.475Z,20
2017-07-12T20:22:46.418Z,8
2017-07-12T20:32:46.233Z,8
2017-07-12T20:42:46.141Z,4
2017-07-12T20:52:46.151Z,4
2017-07-12T21:02:47.846Z,8
2017-07-12T21:12:46.164Z,4
2017-07-12T21:22:46.099Z,4
2017-07-12T21:32:46.164Z,0
2017-07-12T21:42:46.158Z,4
2017-07-12T21:52:46.190Z,4
2017-07-12T22:02:46.216Z,0
2017-07-12T22:12:46.183Z,0
2017-07-12T22:22:47.665Z,0
2017-07-12T22:32:47.104Z,4
2017-07-12T22:42:46.118Z,4
2017-07-12T22:52:50.230Z,0
2017-07-12T23:02:46.767Z,4
2017-07-12T23:12:46.170Z,4
2017-07-12T23:22:48.901Z,4
2017-07-12T23:32:46.126Z,4
2017-07-12T23:42:49.549Z,4
2017-07-12T23:52:46.477Z,4
